Weather at Kissimmee Gateway Airport

Public forecast

Using degrees Fahrenheit for public forecast. Weather courtesy of forecast.io.

Current aviation weather report (METAR) for Kissimmee Gateway Airport

Report is more than 6 hours old.

2022/11/14 14:56 (retrieved 2 years ago)

KISM 141456Z 03006KT 10SM SCT038 SCT048 23/17 A3012 RMK AO2 SLP200 6//// T02280172 51013 PNO

Aviation forecast (TAF) for Kissimmee Gateway Airport

Forecast is more than 12 hours old.

2023/02/22 18:34 (retrieved 1 year ago)

TAF KISM 221732Z 2218/2318 17010KT P6SM FEW050 FM230000 17005KT P6SM FEW250 FM231000 VRB04KT 5SM BR FEW250 FM231400 19007KT P6SM SKC